createdAt,value
2022-09-13T00:00:12.112Z,5.23
2022-09-13T00:03:15.180Z,6.63
2022-09-13T00:06:19.725Z,5.17
2022-09-13T00:09:22.205Z,5.27
2022-09-13T00:12:24.757Z,5.27
2022-09-13T00:15:28.887Z,3.47
2022-09-13T00:18:31.767Z,8.57
2022-09-13T00:21:34.315Z,5.20
2022-09-13T00:24:37.255Z,6.37
2022-09-13T00:27:39.846Z,4.63
2022-09-13T00:30:43.673Z,6.10
2022-09-13T00:33:46.156Z,4.47
2022-09-13T00:36:48.655Z,7.57
2022-09-13T00:39:51.159Z,5.00
2022-09-13T00:42:53.643Z,7.43
2022-09-13T00:45:57.619Z,5.37
2022-09-13T00:49:04.069Z,7.23
2022-09-13T00:52:11.245Z,5.27
2022-09-13T00:55:19.551Z,6.47
2022-09-13T00:58:26.498Z,6.27
2022-09-13T01:01:34.652Z,5.67
2022-09-13T01:04:38.122Z,7.27
2022-09-13T01:07:41.712Z,7.47
2022-09-13T01:10:45.154Z,7.10
2022-09-13T01:13:48.768Z,6.37
2022-09-13T01:16:53.733Z,8.30
2022-09-13T01:19:56.395Z,6.77
2022-09-13T01:23:21.324Z,5.37
2022-09-13T01:26:39.864Z,6.87
2022-09-13T01:30:09.653Z,7.30
2022-09-13T01:33:37.397Z,6.10
2022-09-13T01:36:50.652Z,6.17
2022-09-13T01:40:04.839Z,8.90
2022-09-13T01:43:28.621Z,5.93
2022-09-13T01:46:40.858Z,5.73
2022-09-13T01:49:48.935Z,7.00
2022-09-13T01:52:57.073Z,9.03
2022-09-13T01:56:05.075Z,5.53
2022-09-13T01:59:15.272Z,8.30
2022-09-13T02:02:24.180Z,5.03
2022-09-13T02:05:34.484Z,6.23
2022-09-13T02:08:41.345Z,8.10
2022-09-13T02:11:48.123Z,5.93
2022-09-13T02:14:56.170Z,6.83
2022-09-13T02:18:06.438Z,7.30
2022-09-13T02:21:15.053Z,5.90
2022-09-13T02:24:21.763Z,6.33
2022-09-13T02:27:28.515Z,6.67
2022-09-13T02:30:33.761Z,6.73
2022-09-13T02:33:43.651Z,7.30
2022-09-13T02:36:49.569Z,6.70
2022-09-13T02:39:56.635Z,6.90
2022-09-13T02:43:05.946Z,11.80
2022-09-13T02:46:21.157Z,7.63
2022-09-13T02:49:31.761Z,7.63
2022-09-13T02:52:46.840Z,5.77
2022-09-13T02:55:57.742Z,5.43
2022-09-13T02:59:07.550Z,9.20
2022-09-13T03:02:13.912Z,5.77
2022-09-13T03:05:18.629Z,9.30
2022-09-13T03:08:23.017Z,6.67
2022-09-13T03:11:37.052Z,9.33
2022-09-13T03:14:48.516Z,10.40
2022-09-13T03:18:01.190Z,7.63
2022-09-13T03:21:12.799Z,6.97
2022-09-13T03:24:24.493Z,10.47
2022-09-13T03:27:35.697Z,9.60
2022-09-13T03:30:41.901Z,8.77
2022-09-13T03:33:52.158Z,7.07
2022-09-13T03:36:59.332Z,8.97
2022-09-13T03:40:08.096Z,11.73
2022-09-13T03:43:14.826Z,9.80
2022-09-13T03:46:23.848Z,10.47
2022-09-13T03:49:30.004Z,7.80
2022-09-13T03:52:34.905Z,8.87
2022-09-13T03:55:41.396Z,9.47
2022-09-13T03:58:44.158Z,9.80
2022-09-13T04:01:46.699Z,10.70
2022-09-13T04:04:49.441Z,9.33
2022-09-13T04:07:53.270Z,9.00
2022-09-13T04:10:55.754Z,14.27
2022-09-13T04:13:59.287Z,10.57
2022-09-13T04:17:01.786Z,12.07
2022-09-13T04:20:05.654Z,9.70
2022-09-13T04:23:09.511Z,12.07
2022-09-13T04:26:12.039Z,12.50
2022-09-13T04:29:14.542Z,15.00
2022-09-13T04:32:17.035Z,10.83
2022-09-13T04:35:19.921Z,12.83
2022-09-13T04:38:23.895Z,13.63
2022-09-13T04:41:26.365Z,16.57
2022-09-13T04:44:29.653Z,13.73
2022-09-13T04:47:32.167Z,12.17
2022-09-13T04:50:34.657Z,13.03
2022-09-13T04:53:38.473Z,15.17
2022-09-13T04:56:41.186Z,12.37
2022-09-13T04:59:43.702Z,13.90
2022-09-13T05:02:46.231Z,16.00
2022-09-13T05:05:48.692Z,14.30
2022-09-13T05:08:55.119Z,16.17
2022-09-13T05:11:57.646Z,20.63
2022-09-13T05:15:00.181Z,16.67
2022-09-13T05:18:02.662Z,17.23
2022-09-13T05:21:06.035Z,15.70
2022-09-13T05:24:10.603Z,21.33
2022-09-13T05:27:13.114Z,21.80
2022-09-13T05:30:15.871Z,17.83
2022-09-13T05:33:18.338Z,18.93
2022-09-13T05:36:21.035Z,20.97
2022-09-13T05:39:48.487Z,19.53
2022-09-13T05:42:47.453Z,18.53
2022-09-13T05:45:50.286Z,25.30
2022-09-13T05:48:52.822Z,20.33
2022-09-13T05:51:55.347Z,21.10
2022-09-13T05:54:59.162Z,20.60
2022-09-13T05:58:03.240Z,20.47
2022-09-13T06:01:06.029Z,21.00
2022-09-13T06:04:08.530Z,19.40
2022-09-13T06:07:12.821Z,18.73
2022-09-13T06:10:16.999Z,18.57
2022-09-13T06:13:19.465Z,24.50
2022-09-13T06:16:22.328Z,24.03
2022-09-13T06:19:25.511Z,24.87
2022-09-13T06:22:33.026Z,22.93
2022-09-13T06:25:37.697Z,22.77
2022-09-13T06:28:40.742Z,29.77
2022-09-13T06:31:45.062Z,25.03
2022-09-13T06:34:48.160Z,26.67
2022-09-13T06:37:50.712Z,24.37
2022-09-13T06:41:02.175Z,27.47
2022-09-13T06:44:05.111Z,27.30
2022-09-13T06:47:07.710Z,26.80
2022-09-13T06:50:10.876Z,25.97
2022-09-13T06:53:13.434Z,26.27
2022-09-13T06:56:19.014Z,30.33
2022-09-13T06:59:21.651Z,26.10
2022-09-13T07:02:24.990Z,30.97
2022-09-13T07:05:27.713Z,25.90
2022-09-13T07:08:30.239Z,31.23
2022-09-13T07:11:35.926Z,29.90
2022-09-13T07:14:38.404Z,27.70
2022-09-13T07:17:40.885Z,29.10
2022-09-13T07:20:43.383Z,26.83
2022-09-13T07:23:45.867Z,27.27
2022-09-13T07:26:50.716Z,29.90
2022-09-13T07:29:53.190Z,26.63
2022-09-13T07:32:55.679Z,21.40
2022-09-13T07:35:59.728Z,23.80
2022-09-13T07:39:02.682Z,21.70
2022-09-13T07:42:06.734Z,26.83
2022-09-13T07:45:10.418Z,30.07
2022-09-13T07:48:12.886Z,20.50
2022-09-13T07:51:17.256Z,20.77
2022-09-13T07:54:20.683Z,20.37
2022-09-13T07:57:24.626Z,23.00
2022-09-13T08:00:27.804Z,22.97
2022-09-13T08:03:30.887Z,17.17
2022-09-13T08:06:35.012Z,22.37
2022-09-13T08:09:37.481Z,23.37
2022-09-13T08:12:41.301Z,15.80
2022-09-13T08:15:44.154Z,19.13
2022-09-13T08:18:47.569Z,17.70
2022-09-13T08:21:50.075Z,13.13
2022-09-13T08:24:52.561Z,15.37
2022-09-13T08:27:56.508Z,15.27
2022-09-13T08:31:04.919Z,13.90
2022-09-13T08:34:11.294Z,13.73
2022-09-13T08:37:14.974Z,14.07
2022-09-13T08:40:17.994Z,10.40
2022-09-13T08:43:41.896Z,13.90
2022-09-13T08:46:46.715Z,12.13
2022-09-13T08:49:52.843Z,13.93
2022-09-13T08:53:12.572Z,13.80
2022-09-13T08:56:21.173Z,10.60
2022-09-13T08:59:35.220Z,9.77
2022-09-13T09:02:52.475Z,12.40
2022-09-13T09:05:55.452Z,9.17
2022-09-13T09:09:03.683Z,12.13
2022-09-13T09:12:17.916Z,12.80
2022-09-13T09:15:25.040Z,10.50
2022-09-13T09:18:32.258Z,9.37
2022-09-13T09:21:35.463Z,9.93
2022-09-13T09:24:39.917Z,9.70
2022-09-13T09:27:42.546Z,16.40
2022-09-13T09:31:01.708Z,6.73
2022-09-13T09:34:14.737Z,10.53
2022-09-13T09:37:22.024Z,10.33
2022-09-13T09:40:28.513Z,8.77
2022-09-13T09:43:40.001Z,7.43
2022-09-13T09:46:48.007Z,6.60
2022-09-13T09:50:10.947Z,7.23
2022-09-13T09:53:18.078Z,4.60
2022-09-13T09:56:26.483Z,4.93
2022-09-13T09:59:33.426Z,8.40
2022-09-13T10:02:44.262Z,7.10
2022-09-13T10:05:47.869Z,5.47
2022-09-13T10:08:58.451Z,6.53
2022-09-13T10:12:01.401Z,6.80
2022-09-13T10:15:08.229Z,10.93
2022-09-13T10:21:40.503Z,5.03
2022-09-13T10:24:44.474Z,5.28
2022-09-13T10:27:52.832Z,9.85
2022-09-13T10:30:59.841Z,5.55
2022-09-13T10:34:07.311Z,7.95
2022-09-13T10:37:17.634Z,5.18
2022-09-13T10:40:26.986Z,5.45
2022-09-13T10:43:31.952Z,6.40
2022-09-13T10:46:37.899Z,10.02
2022-09-13T10:49:47.779Z,8.20
2022-09-13T10:52:51.765Z,4.80
2022-09-13T10:55:55.507Z,7.65
2022-09-13T10:59:22.231Z,5.78
2022-09-13T11:02:57.761Z,8.73
2022-09-13T11:06:06.359Z,9.05
2022-09-13T11:09:15.109Z,6.97
2022-09-13T11:12:25.863Z,4.78
2022-09-13T11:15:39.007Z,7.07
2022-09-13T11:19:01.109Z,5.50
2022-09-13T11:22:26.163Z,6.63
2022-09-13T11:25:45.235Z,6.45
2022-09-13T11:28:57.196Z,3.80
2022-09-13T11:32:09.280Z,6.18
2022-09-13T11:35:30.935Z,3.22
2022-09-13T11:38:47.740Z,6.85
2022-09-13T11:42:02.241Z,6.47
2022-09-13T11:45:21.937Z,6.53
2022-09-13T11:48:53.934Z,4.43
2022-09-13T11:52:09.666Z,6.30
2022-09-13T11:55:20.024Z,7.00
2022-09-13T11:58:26.475Z,6.78
2022-09-13T12:01:34.208Z,7.97
2022-09-13T12:04:59.355Z,4.05
2022-09-13T12:08:17.622Z,3.33
2022-09-13T12:11:25.007Z,9.68
2022-09-13T12:14:33.830Z,5.50
2022-09-13T12:17:41.561Z,5.00
2022-09-13T12:20:48.988Z,5.47
2022-09-13T12:23:57.506Z,5.25
2022-09-13T12:27:05.804Z,3.63
2022-09-13T12:30:15.286Z,7.38
2022-09-13T12:33:17.980Z,5.22
2022-09-13T12:36:48.069Z,7.38
2022-09-13T12:40:12.516Z,9.13
2022-09-13T12:43:47.841Z,5.78
2022-09-13T12:47:20.259Z,7.22
2022-09-13T12:50:53.093Z,7.88
2022-09-13T12:54:18.092Z,7.05
2022-09-13T12:57:35.413Z,6.15
2022-09-13T13:00:45.426Z,6.80
2022-09-13T13:03:54.080Z,8.05
2022-09-13T13:06:59.915Z,9.18
2022-09-13T13:10:03.119Z,11.30
2022-09-13T13:13:14.144Z,8.05
2022-09-13T13:16:28.626Z,8.60
2022-09-13T13:19:33.911Z,9.60
2022-09-13T13:22:53.136Z,9.48
2022-09-13T13:26:02.182Z,7.68
2022-09-13T13:29:13.942Z,6.53
2022-09-13T13:32:17.774Z,11.32
2022-09-13T13:35:30.999Z,5.30
2022-09-13T13:38:49.101Z,7.15
2022-09-13T13:41:55.375Z,8.23
2022-09-13T13:45:21.220Z,9.55
2022-09-13T13:48:38.806Z,14.00
2022-09-13T13:51:41.403Z,9.48
2022-09-13T13:55:02.592Z,8.68
2022-09-13T13:58:22.983Z,6.65
2022-09-13T14:01:29.351Z,9.35
2022-09-13T14:04:59.542Z,5.95
2022-09-13T14:08:25.886Z,5.57
2022-09-13T14:11:43.880Z,6.35
2022-09-13T14:14:59.836Z,7.30
2022-09-13T14:18:47.018Z,9.38
2022-09-13T14:22:06.987Z,9.13
2022-09-13T14:25:25.308Z,9.63
2022-09-13T14:28:30.150Z,6.43
2022-09-13T14:31:32.781Z,6.65
2022-09-13T14:34:38.773Z,8.20
2022-09-13T14:37:42.606Z,7.45
2022-09-13T14:40:49.184Z,8.63
2022-09-13T14:43:51.656Z,10.18
2022-09-13T14:46:59.199Z,8.02
2022-09-13T14:50:07.145Z,10.48
2022-09-13T14:53:17.403Z,10.00
2022-09-13T14:56:28.622Z,12.15
2022-09-13T14:59:34.069Z,9.13
2022-09-13T15:02:39.715Z,8.43
2022-09-13T15:05:42.403Z,12.57
2022-09-13T15:08:48.553Z,8.60
2022-09-13T15:11:58.995Z,4.93
2022-09-13T15:15:26.084Z,14.10
2022-09-13T15:18:36.611Z,10.13
2022-09-13T15:21:39.658Z,7.47
2022-09-13T15:24:47.946Z,10.23
2022-09-13T15:27:51.499Z,11.73
2022-09-13T15:30:55.390Z,10.27
2022-09-13T15:34:21.265Z,11.73
2022-09-13T15:37:31.825Z,6.60
2022-09-13T15:40:44.906Z,5.90
2022-09-13T15:43:49.349Z,13.87
2022-09-13T15:46:54.207Z,8.70
2022-09-13T15:49:56.779Z,10.27
2022-09-13T15:53:00.378Z,7.63
2022-09-13T15:56:05.519Z,7.10
2022-09-13T15:59:08.003Z,10.63
2022-09-13T16:02:19.700Z,10.10
2022-09-13T16:05:22.457Z,13.60
2022-09-13T16:08:26.023Z,12.57
2022-09-13T16:11:29.844Z,12.47
2022-09-13T16:14:32.361Z,11.77
2022-09-13T16:17:35.014Z,15.17
2022-09-13T16:20:37.536Z,10.03
2022-09-13T16:23:40.016Z,11.63
2022-09-13T16:26:44.801Z,8.93
2022-09-13T16:29:47.686Z,4.00
2022-09-13T16:32:50.385Z,11.03
2022-09-13T16:35:52.858Z,7.63
2022-09-13T16:38:55.402Z,6.93
2022-09-13T16:41:59.247Z,10.47
2022-09-13T16:45:01.813Z,8.73
2022-09-13T16:48:04.361Z,17.63
2022-09-13T16:51:08.594Z,7.57
2022-09-13T16:54:11.084Z,15.33
2022-09-13T16:57:15.078Z,25.53
2022-09-13T17:00:18.767Z,7.17
2022-09-13T17:03:21.232Z,8.83
2022-09-13T17:06:25.429Z,5.97
2022-09-13T17:09:27.921Z,6.33
2022-09-13T17:12:31.735Z,8.30
2022-09-13T17:15:39.045Z,5.10
2022-09-13T17:18:41.652Z,9.00
2022-09-13T17:21:44.700Z,8.67
2022-09-13T17:24:47.209Z,6.47
2022-09-13T17:27:51.150Z,6.77
2022-09-13T17:30:53.735Z,4.60
2022-09-13T17:33:56.732Z,6.97
2022-09-13T17:36:59.241Z,8.17
2022-09-13T17:40:02.179Z,7.30
2022-09-13T17:43:06.066Z,6.83
2022-09-13T17:46:11.930Z,5.23
2022-09-13T17:49:14.641Z,8.70
2022-09-13T17:52:17.208Z,7.13
2022-09-13T17:55:19.776Z,12.53
2022-09-13T17:58:25.389Z,8.17
2022-09-13T18:01:27.995Z,9.33
2022-09-13T18:04:30.601Z,5.47
2022-09-13T18:07:33.077Z,11.77
2022-09-13T18:11:10.571Z,8.60
2022-09-13T18:13:59.757Z,11.00
2022-09-13T18:17:02.478Z,9.30
2022-09-13T18:20:05.469Z,6.30
2022-09-13T18:23:08.064Z,6.90
2022-09-13T18:26:14.387Z,8.17
2022-09-13T18:29:18.773Z,6.70
2022-09-13T18:32:21.288Z,8.03
2022-09-13T18:35:23.785Z,9.83
2022-09-13T18:38:27.313Z,12.97
2022-09-13T18:41:33.122Z,5.33
2022-09-13T18:44:36.903Z,6.47
2022-09-13T18:47:39.689Z,7.37
2022-09-13T18:50:43.136Z,9.77
2022-09-13T18:53:46.904Z,8.13
2022-09-13T18:56:49.517Z,5.90
2022-09-13T18:59:53.329Z,13.73
2022-09-13T19:03:11.269Z,9.17
2022-09-13T19:06:16.443Z,11.87
2022-09-13T19:09:20.749Z,7.67
2022-09-13T19:12:23.344Z,9.13
2022-09-13T19:15:27.271Z,10.80
2022-09-13T19:18:30.424Z,10.47
2022-09-13T19:21:34.013Z,10.37
2022-09-13T19:24:38.222Z,9.33
2022-09-13T19:27:41.024Z,8.00
2022-09-13T19:30:49.481Z,9.77
2022-09-13T19:33:54.183Z,5.93
2022-09-13T19:36:58.518Z,4.67
2022-09-13T19:40:01.338Z,7.03
2022-09-13T19:43:04.041Z,7.50
2022-09-13T19:46:10.095Z,6.17
2022-09-13T19:49:15.102Z,6.73
2022-09-13T19:52:17.769Z,7.47
2022-09-13T19:55:20.258Z,7.27
2022-09-13T19:58:22.735Z,9.80
2022-09-13T20:01:29.511Z,11.70
2022-09-13T20:04:32.671Z,7.80
2022-09-13T20:07:35.369Z,8.63
2022-09-13T20:10:38.740Z,6.63
2022-09-13T20:13:41.401Z,4.83
2022-09-13T20:16:46.102Z,5.23
2022-09-13T20:19:50.269Z,5.27
2022-09-13T20:22:53.093Z,11.13
2022-09-13T20:25:56.030Z,5.30
2022-09-13T20:29:00.866Z,6.57
2022-09-13T20:32:05.038Z,8.07
2022-09-13T20:35:09.145Z,6.53
2022-09-13T20:38:11.668Z,9.07
2022-09-13T20:41:16.010Z,6.23
2022-09-13T20:44:18.814Z,7.97
2022-09-13T20:47:29.104Z,4.23
2022-09-13T20:50:31.640Z,8.10
2022-09-13T20:53:34.314Z,5.63
2022-09-13T20:56:36.813Z,4.73
2022-09-13T20:59:40.006Z,6.73
2022-09-13T21:02:44.207Z,7.13
2022-09-13T21:05:46.836Z,6.77
2022-09-13T21:08:50.368Z,9.57
2022-09-13T21:11:53.072Z,7.37
2022-09-13T21:14:55.761Z,4.17
2022-09-13T21:17:59.787Z,3.40
2022-09-13T21:21:04.678Z,7.80
2022-09-13T21:24:09.685Z,4.30
2022-09-13T21:27:12.528Z,7.00
2022-09-13T21:30:15.757Z,3.90
2022-09-13T21:33:19.625Z,9.53
2022-09-13T21:36:22.149Z,4.37
2022-09-13T21:39:24.769Z,6.53
2022-09-13T21:42:27.313Z,6.47
2022-09-13T21:45:29.975Z,10.40
2022-09-13T21:48:35.493Z,12.27
2022-09-13T21:51:40.291Z,7.03
2022-09-13T21:54:42.778Z,8.67
2022-09-13T21:57:45.364Z,6.77
2022-09-13T22:00:47.963Z,4.00
2022-09-13T22:03:53.442Z,9.17
2022-09-13T22:06:56.488Z,7.10
2022-09-13T22:09:58.969Z,4.63
2022-09-13T22:13:01.445Z,5.33
2022-09-13T22:16:05.703Z,8.03
2022-09-13T22:19:12.804Z,4.10
2022-09-13T22:22:15.320Z,6.87
2022-09-13T22:25:17.798Z,6.50
2022-09-13T22:28:20.295Z,5.07
2022-09-13T22:31:25.442Z,5.67
2022-09-13T22:34:30.848Z,7.27
2022-09-13T22:37:33.662Z,5.20
2022-09-13T22:40:36.317Z,5.53
2022-09-13T22:43:39.689Z,5.07
2022-09-13T22:46:44.038Z,5.37
2022-09-13T22:49:47.992Z,7.80
2022-09-13T22:52:50.494Z,5.43
2022-09-13T22:55:53.168Z,6.77
2022-09-13T22:58:56.688Z,6.20
2022-09-13T23:01:59.157Z,7.63
2022-09-13T23:05:02.992Z,8.80
2022-09-13T23:08:06.397Z,6.40
2022-09-13T23:11:10.813Z,11.37
2022-09-13T23:14:15.575Z,3.07
2022-09-13T23:17:18.082Z,3.37
2022-09-13T23:20:22.002Z,9.17
2022-09-13T23:23:24.495Z,3.70
2022-09-13T23:26:27.653Z,6.30
2022-09-13T23:29:31.042Z,5.77
2022-09-13T23:32:33.555Z,5.60
2022-09-13T23:35:37.889Z,6.83
2022-09-13T23:38:41.062Z,6.03
2022-09-13T23:41:44.171Z,10.00
2022-09-13T23:44:46.714Z,7.13
2022-09-13T23:47:49.181Z,6.20
2022-09-13T23:51:00.714Z,9.47
2022-09-13T23:54:03.702Z,3.73
2022-09-13T23:57:07.104Z,7.27
